Time;durP1;ratioP1;P1;durP2;ratioP2;P2;SDS_P1;SDS_P2;PMS_P1;PMS_P2;Temp;Humidity;BMP_temperature;BMP_pressure;BME280_temperature;BME280_humidity;BME280_pressure;Samples;Min_cycle;Max_cycle;Signal;HPM_P1;HPM_P2
2021/06/15 00:00:17;;;;;;;13.40;7.75;;;;;;;12.98;69.19;99721.84;1773084;79;20930;-64
2021/06/15 00:02:46;;;;;;;15.83;7.60;;;;;;;13.08;69.20;99740.05;1780994;79;20875;-65
2021/06/15 00:05:14;;;;;;;14.87;6.60;;;;;;;13.09;69.29;99741.73;1778565;79;20980;-64
2021/06/15 00:07:42;;;;;;;13.68;7.10;;;;;;;13.05;69.37;99738.92;1787885;78;21189;-65
2021/06/15 00:10:16;;;;;;;9.38;6.80;;;;;;;13.03;69.43;99742.09;1794698;78;20985;-65
2021/06/15 00:12:43;;;;;;;14.10;7.12;;;;;;;13.01;69.56;99733.45;1796113;78;20929;-65
2021/06/15 00:15:13;;;;;;;11.48;6.65;;;;;;;12.91;69.62;99720.48;1796130;78;21445;-65
2021/06/15 00:17:40;;;;;;;12.78;7.22;;;;;;;12.91;69.57;99730.53;1799607;78;21583;-65
2021/06/15 00:20:09;;;;;;;9.10;6.22;;;;;;;12.91;69.57;99730.53;1795851;78;20933;-65
2021/06/15 00:22:36;;;;;;;12.73;6.50;;;;;;;12.92;69.91;99724.81;1793540;78;21493;-65
2021/06/15 00:25:05;;;;;;;8.43;6.33;;;;;;;12.92;69.94;99727.44;1776449;79;22127;-65
2021/06/15 00:27:31;;;;;;;11.28;6.70;;;;;;;12.91;70.04;99725.73;1799149;78;21121;-65
2021/06/15 00:29:58;;;;;;;12.93;6.90;;;;;;;12.89;70.06;99727.61;1801396;78;20895;-65
2021/06/15 00:32:25;;;;;;;8.65;6.10;;;;;;;12.86;70.05;99719.46;1788541;79;20949;-65
2021/06/15 00:34:52;;;;;;;7.95;5.78;;;;;;;12.86;70.11;99722.55;1783764;79;20905;-65
2021/06/15 00:37:19;;;;;;;12.55;6.45;;;;;;;12.84;70.19;99713.92;1800545;78;21008;-65
2021/06/15 00:39:47;;;;;;;9.83;7.07;;;;;;;12.82;70.36;99714.00;1796548;78;21857;-65
2021/06/15 00:42:13;;;;;;;9.73;6.72;;;;;;;12.81;70.45;99715.41;1787122;79;20938;-65
2021/06/15 00:44:40;;;;;;;13.60;6.83;;;;;;;12.84;70.65;99713.92;1744610;80;21530;-65
2021/06/15 00:47:07;;;;;;;11.43;6.78;;;;;;;12.89;70.75;99710.58;1799844;78;21492;-65
2021/06/15 00:49:37;;;;;;;9.90;6.37;;;;;;;12.91;70.83;99711.31;1802526;78;21523;-65
2021/06/15 00:52:05;;;;;;;10.35;6.50;;;;;;;12.93;70.89;99708.16;1800513;78;21079;-65
2021/06/15 00:54:33;;;;;;;11.85;6.95;;;;;;;12.92;71.03;99705.16;1799391;78;20993;-65
2021/06/15 00:56:59;;;;;;;;;;;;;;;12.95;71.02;99706.30;1804171;78;21044;-65
2021/06/15 00:59:26;;;;;;;11.85;8.05;;;;;;;12.97;71.17;99704.44;1802417;78;20104;-65
2021/06/15 01:01:53;;;;;;;8.75;6.12;;;;;;;12.97;71.09;99709.69;1803457;78;21552;-65
2021/06/15 01:04:21;;;;;;;7.58;6.55;;;;;;;12.99;71.24;99703.42;1801355;78;21574;-65
2021/06/15 01:07:13;;;;;;;11.22;6.53;;;;;;;13.04;71.30;99702.30;1779268;79;20894;-64
2021/06/15 01:10:04;;;;;;;11.30;6.12;;;;;;;13.09;71.36;99705.03;1790002;78;20969;-65
2021/06/15 01:12:44;;;;;;;9.60;6.47;;;;;;;13.16;71.50;99705.06;1727622;82;21107;-65
2021/06/15 01:15:19;;;;;;;12.13;6.10;;;;;;;13.24;71.60;99701.14;1745803;81;21509;-65
2021/06/15 01:18:01;;;;;;;10.30;6.70;;;;;;;13.37;71.80;99700.36;1717532;82;21081;-65
2021/06/15 01:20:38;;;;;;;11.95;5.55;;;;;;;13.37;71.80;99700.36;1752152;80;20937;-65
2021/06/15 01:23:46;;;;;;;11.18;6.47;;;;;;;13.45;71.70;99698.61;1755767;80;21008;-65
2021/06/15 01:26:53;;;;;;;14.28;6.08;;;;;;;13.51;71.76;99694.30;1759128;80;20916;-65
2021/06/15 01:29:28;;;;;;;10.60;6.30;;;;;;;13.57;71.71;99689.98;1762755;80;21086;-65
2021/06/15 01:32:00;;;;;;;8.88;5.50;;;;;;;13.63;71.85;99684.36;1752709;80;21172;-65
2021/06/15 01:37:16;;;;;;;10.15;5.25;;;;;;;13.77;71.88;99686.63;1885199;74;22051;-65
2021/06/15 01:40:00;;;;;;;12.05;5.15;;;;;;;13.80;72.02;99682.03;1832469;77;21009;-66
2021/06/15 01:42:34;;;;;;;9.03;6.00;;;;;;;13.85;71.99;99679.97;1832627;77;21910;-65
2021/06/15 01:45:11;;;;;;;9.58;5.72;;;;;;;13.85;71.99;99679.97;1828408;77;20997;-65
2021/06/15 01:47:39;;;;;;;;;;;;;;;13.89;71.91;99677.99;1838089;77;20919;-65
2021/06/15 01:50:09;;;;;;;6.92;4.97;;;;;;;13.92;72.01;99675.20;1838373;77;20088;-65
2021/06/15 01:52:39;;;;;;;11.38;5.60;;;;;;;13.93;71.97;99674.26;1828245;77;21024;-65
2021/06/15 01:55:09;;;;;;;9.95;5.95;;;;;;;13.97;71.98;99669.65;1831084;77;21096;-65
2021/06/15 01:57:36;;;;;;;14.45;5.15;;;;;;;14.00;71.99;99669.02;1829569;77;20954;-64
2021/06/15 02:00:10;;;;;;;9.80;4.97;;;;;;;14.05;72.03;99668.23;1830969;77;20965;-64
2021/06/15 02:02:39;;;;;;;8.50;4.75;;;;;;;14.07;72.09;99665.05;1831980;77;20926;-65
2021/06/15 02:05:08;;;;;;;8.03;5.40;;;;;;;14.12;72.04;99666.56;1822424;77;20992;-65
2021/06/15 02:07:42;;;;;;;8.18;5.42;;;;;;;14.16;72.08;99658.84;1833078;77;21067;-65
2021/06/15 02:10:13;;;;;;;13.85;5.20;;;;;;;14.20;72.01;99662.95;1827009;77;21512;-65
2021/06/15 02:12:44;;;;;;;7.62;5.45;;;;;;;14.23;72.03;99664.10;1824866;77;22358;-65
2021/06/15 02:15:17;;;;;;;7.10;4.42;;;;;;;14.27;72.02;99667.73;1824516;77;20943;-65
2021/06/15 02:17:47;;;;;;;6.25;4.53;;;;;;;14.32;72.02;99670.08;1816497;77;20977;-64
2021/06/15 02:20:15;;;;;;;11.33;4.50;;;;;;;14.36;72.04;99664.98;1832683;77;21066;-66
2021/06/15 02:22:49;;;;;;;7.45;4.37;;;;;;;14.41;72.07;99666.85;1832697;77;21445;-66
2021/06/15 02:25:29;;;;;;;7.65;3.90;;;;;;;14.49;72.05;99671.63;1833618;77;21483;-65
2021/06/15 02:27:57;;;;;;;10.78;4.60;;;;;;;14.54;72.03;99665.16;1827505;77;20945;-64
2021/06/15 02:30:25;;;;;;;6.83;4.08;;;;;;;14.60;72.02;99665.72;1823545;77;21069;-63
2021/06/15 02:32:56;;;;;;;6.00;3.75;;;;;;;14.66;72.03;99666.63;1836730;77;21516;-64
2021/06/15 02:35:25;;;;;;;5.95;3.65;;;;;;;14.72;71.98;99667.53;1826339;77;20922;-65
2021/06/15 02:38:06;;;;;;;7.53;3.95;;;;;;;14.78;72.00;99660.08;1829136;77;20958;-65
2021/06/15 02:40:34;;;;;;;8.58;4.33;;;;;;;14.85;71.93;99657.91;1825827;77;21009;-64
2021/06/15 02:43:02;;;;;;;9.18;4.22;;;;;;;14.91;71.93;99661.92;1825810;77;21036;-65
2021/06/15 02:45:31;;;;;;;7.62;4.03;;;;;;;14.95;71.91;99661.59;1822265;77;21472;-65
2021/06/15 02:48:05;;;;;;;6.30;3.75;;;;;;;15.03;71.87;99665.52;1816528;77;20934;-64
2021/06/15 02:50:34;;;;;;;5.87;3.85;;;;;;;15.08;71.81;99664.27;1824332;77;20919;-65
2021/06/15 02:53:18;;;;;;;8.38;4.65;;;;;;;15.13;71.81;99671.86;1820779;77;20994;-65
2021/06/15 02:55:59;;;;;;;6.08;4.12;;;;;;;15.19;71.75;99667.49;1794882;77;21037;-66
2021/06/15 02:58:27;;;;;;;5.25;3.90;;;;;;;15.24;71.68;99668.03;1807257;77;21113;-65
2021/06/15 03:00:55;;;;;;;6.33;4.05;;;;;;;15.27;71.62;99674.40;1826302;77;22267;-65
2021/06/15 03:03:21;;;;;;;;;;;;;;;15.31;71.59;99673.23;1824937;77;21532;-65
2021/06/15 03:05:48;;;;;;;12.65;4.15;;;;;;;15.35;71.61;99670.78;1823335;77;20529;-65
2021/06/15 03:08:15;;;;;;;12.00;3.80;;;;;;;15.39;71.59;99673.55;1819601;77;21049;-65
2021/06/15 03:10:42;;;;;;;5.25;4.03;;;;;;;15.45;71.55;99673.13;1825028;77;21591;-65
2021/06/15 03:13:24;;;;;;;;;;;;;;;15.51;71.49;99674.98;1828820;77;21045;-65
2021/06/15 03:15:53;;;;;;;5.03;3.92;;;;;;;15.57;71.50;99678.50;1824430;77;20131;-65
2021/06/15 03:18:43;;;;;;;7.85;4.47;;;;;;;15.61;71.43;99682.63;1816471;77;22182;-64
2021/06/15 03:21:13;;;;;;;18.90;4.65;;;;;;;15.66;71.40;99685.79;1820908;77;21020;-63
2021/06/15 03:24:02;;;;;;;57.60;7.65;;;;;;;15.72;71.40;99685.39;1818590;77;21496;-63
2021/06/15 03:26:42;;;;;;;27.85;5.25;;;;;;;15.79;71.34;99686.63;1824990;77;21374;-63
2021/06/15 03:29:13;;;;;;;27.48;5.12;;;;;;;15.85;71.27;99688.86;1818898;77;20997;-63
2021/06/15 03:31:42;;;;;;;22.10;4.62;;;;;;;15.92;71.20;99684.48;1824556;77;20982;-63
2021/06/15 03:34:12;;;;;;;19.77;5.40;;;;;;;15.94;71.07;99689.17;1828919;77;20882;-63
2021/06/15 03:36:40;;;;;;;25.00;6.08;;;;;;;16.00;71.14;99686.11;1811789;77;21965;-63
2021/06/15 03:39:09;;;;;;;36.77;6.15;;;;;;;16.04;71.02;99690.19;1818847;77;21055;-63
2021/06/15 03:41:38;;;;;;;35.78;6.12;;;;;;;16.11;71.06;99686.19;1821092;77;20966;-63
2021/06/15 03:44:07;;;;;;;49.98;7.72;;;;;;;16.18;71.00;99685.27;1820429;77;21012;-65
2021/06/15 03:46:35;;;;;;;36.90;7.65;;;;;;;16.23;70.98;99685.31;1820532;77;20980;-65
2021/06/15 03:49:06;;;;;;;53.55;8.33;;;;;;;16.27;70.93;99678.89;1823439;77;22295;-65
2021/06/15 03:51:36;;;;;;;47.43;7.87;;;;;;;16.30;70.74;99681.30;1821986;77;21046;-65
2021/06/15 03:54:09;;;;;;;29.98;5.87;;;;;;;16.33;70.75;99678.44;1825108;77;21048;-65
2021/06/15 03:56:48;;;;;;;33.90;6.35;;;;;;;16.41;70.70;99677.03;1827847;77;21068;-65
2021/06/15 03:59:19;;;;;;;51.10;6.30;;;;;;;16.48;70.73;99675.64;1823552;77;21009;-65
2021/06/15 04:01:50;;;;;;;20.40;5.65;;;;;;;16.60;70.67;99680.02;1795878;77;21651;-65
2021/06/15 04:04:17;;;;;;;58.40;7.72;;;;;;;16.71;70.60;99681.87;1822837;77;20958;-65
2021/06/15 04:06:51;;;;;;;22.30;5.08;;;;;;;16.83;70.58;99683.63;1818041;77;20899;-64
2021/06/15 04:09:26;;;;;;;9.05;4.10;;;;;;;16.95;70.42;99687.17;1744649;80;21017;-66
2021/06/15 04:11:55;;;;;;;37.23;5.40;;;;;;;17.06;70.34;99687.22;1750371;80;20962;-65
2021/06/15 04:14:23;;;;;;;36.08;6.10;;;;;;;17.19;70.25;99685.31;1764289;79;21089;-65
2021/06/15 04:16:51;;;;;;;53.23;6.97;;;;;;;17.34;70.21;99682.50;1769406;79;20984;-65
2021/06/15 04:19:31;;;;;;;463.18;46.98;;;;;;;17.52;70.21;99691.64;1774692;80;21036;-65
2021/06/15 04:22:03;;;;;;;225.65;27.70;;;;;;;17.68;70.08;99689.51;1759375;79;21051;-64
2021/06/15 04:24:32;;;;;;;101.87;14.00;;;;;;;17.84;69.80;99681.73;1764088;80;21146;-64
2021/06/15 04:27:00;;;;;;;42.15;6.58;;;;;;;17.93;69.69;99695.56;1754045;80;21168;-65
2021/06/15 04:29:28;;;;;;;39.18;7.17;;;;;;;18.02;69.63;99696.64;1759410;79;20913;-65
2021/06/15 04:31:59;;;;;;;22.32;4.87;;;;;;;18.06;69.48;99688.36;1783650;78;21540;-65
2021/06/15 04:34:27;;;;;;;25.72;6.03;;;;;;;18.11;69.31;99686.17;1781591;78;21026;-65
2021/06/15 04:37:04;;;;;;;19.75;5.22;;;;;;;18.22;69.31;99687.97;1776964;78;20947;-65
2021/06/15 04:39:47;;;;;;;8.05;4.22;;;;;;;18.36;69.22;99688.19;1763222;79;21102;-65
2021/06/15 04:42:17;;;;;;;23.57;6.62;;;;;;;18.48;68.95;99684.55;1764759;79;21028;-66
2021/06/15 04:44:47;;;;;;;22.65;6.28;;;;;;;18.55;68.84;99689.71;1765055;79;21503;-65
2021/06/15 04:47:30;;;;;;;25.68;6.20;;;;;;;18.61;68.64;99695.47;1759719;79;20975;-65
2021/06/15 04:50:14;;;;;;;41.70;9.75;;;;;;;18.66;68.45;99685.36;1772125;79;21534;-65
2021/06/15 04:52:45;;;;;;;22.13;7.47;;;;;;;18.61;68.27;99687.54;1764547;80;22261;-65
2021/06/15 04:55:13;;;;;;;101.95;10.50;;;;;;;18.59;68.11;99694.75;1773654;79;21000;-65
2021/06/15 04:57:44;;;;;;;137.55;13.62;;;;;;;18.54;68.08;99698.62;1763280;80;21038;-65
2021/06/15 05:00:11;;;;;;;79.47;10.38;;;;;;;18.55;68.07;99699.45;1777614;79;20936;-65
2021/06/15 05:02:40;;;;;;;43.68;7.78;;;;;;;18.62;67.94;99697.14;1767784;80;21000;-65
2021/06/15 05:05:12;;;;;;;35.08;6.47;;;;;;;18.64;67.83;99700.51;1771041;79;21100;-64
2021/06/15 05:07:40;;;;;;;33.53;6.03;;;;;;;18.68;67.74;99700.59;1768848;80;20996;-66
2021/06/15 05:10:09;;;;;;;30.43;6.08;;;;;;;18.72;67.67;99708.17;1772418;79;21423;-66
2021/06/15 05:12:44;;;;;;;52.75;7.83;;;;;;;18.78;67.45;99702.90;1775380;80;21512;-66
2021/06/15 05:15:13;;;;;;;28.40;6.75;;;;;;;18.84;67.45;99712.97;1775489;79;21620;-65
2021/06/15 05:17:48;;;;;;;53.52;11.78;;;;;;;18.85;67.34;99706.73;1742525;80;21002;-65
2021/06/15 05:20:17;;;;;;;47.58;9.10;;;;;;;18.88;67.17;99714.41;1762937;79;20963;-65
2021/06/15 05:22:51;;;;;;;57.23;8.90;;;;;;;18.90;67.14;99713.78;1769346;79;20955;-65
2021/06/15 05:25:19;;;;;;;28.55;6.12;;;;;;;18.92;66.92;99715.00;1773660;79;21046;-65
2021/06/15 05:27:46;;;;;;;38.00;6.45;;;;;;;18.84;66.75;99718.27;1773630;79;20935;-65
2021/06/15 05:30:12;;;;;;;237.35;18.92;;;;;;;18.79;66.81;99720.44;1775564;79;21130;-65
2021/06/15 05:32:39;;;;;;;112.37;13.30;;;;;;;18.76;66.72;99721.55;1768046;79;20984;-65
2021/06/15 05:35:06;;;;;;;37.05;6.53;;;;;;;18.70;66.72;99729.09;1763623;79;20908;-65
2021/06/15 05:37:33;;;;;;;48.55;8.43;;;;;;;18.65;66.60;99725.98;1767195;79;20943;-65
2021/06/15 05:40:00;;;;;;;48.25;8.30;;;;;;;18.62;66.67;99719.62;1766247;79;20916;-65
2021/06/15 05:42:27;;;;;;;;;;;;;;;18.64;66.68;99729.59;1769583;80;21278;-65
2021/06/15 05:44:54;;;;;;;57.85;8.18;;;;;;;18.61;66.51;99721.91;1769118;79;20114;-65
2021/06/15 05:47:22;;;;;;;40.05;7.97;;;;;;;18.50;66.26;99730.22;1769203;79;20983;-65
2021/06/15 05:49:49;;;;;;;159.22;21.35;;;;;;;18.32;66.19;99729.89;1773053;79;21458;-65
2021/06/15 05:52:16;;;;;;;59.00;9.80;;;;;;;18.23;66.30;99712.59;1775596;78;20945;-64
2021/06/15 05:54:42;;;;;;;23.35;4.95;;;;;;;18.25;66.46;99722.08;1770891;79;24344;-65
2021/06/15 05:57:09;;;;;;;39.63;7.58;;;;;;;18.26;66.25;99725.55;1767676;79;20880;-64
2021/06/15 05:59:36;;;;;;;21.23;5.40;;;;;;;18.36;66.54;99731.80;1764650;79;20907;-65
2021/06/15 06:02:03;;;;;;;68.47;9.00;;;;;;;18.62;66.46;99742.09;1769233;79;20959;-65
2021/06/15 06:04:38;;;;;;;44.42;6.00;;;;;;;18.86;66.54;99732.70;1769386;79;21038;-65
2021/06/15 06:09:46;;;;;;;12.68;3.58;;;;;;;19.19;65.59;99731.73;1769124;80;20947;-65
2021/06/15 06:12:12;;;;;;;34.90;5.15;;;;;;;18.93;65.28;99726.79;1769451;80;20900;-65
2021/06/15 06:14:39;;;;;;;11.45;3.77;;;;;;;18.83;65.84;99729.82;1770339;80;21471;-65
2021/06/15 06:17:08;;;;;;;6.20;3.80;;;;;;;18.88;65.57;99732.94;1769378;79;20965;-65
2021/06/15 06:19:35;;;;;;;23.35;5.37;;;;;;;18.84;65.79;99740.75;1771768;79;21109;-65
2021/06/15 06:22:01;;;;;;;25.80;4.42;;;;;;;18.93;65.87;99741.34;1772762;79;20912;-65
2021/06/15 06:24:28;;;;;;;13.72;4.60;;;;;;;19.12;65.81;99743.30;1765741;79;21010;-65
2021/06/15 06:26:54;;;;;;;21.87;4.45;;;;;;;19.20;65.56;99743.99;1767781;79;21819;-63
2021/06/15 06:29:22;;;;;;;12.35;4.95;;;;;;;19.20;65.38;99732.91;1768212;79;20913;-65
2021/06/15 06:31:49;;;;;;;16.55;4.55;;;;;;;19.28;65.66;99738.91;1767727;79;21049;-66
2021/06/15 06:34:16;;;;;;;14.73;5.62;;;;;;;19.58;65.72;99746.58;1763758;79;20954;-65
2021/06/15 06:36:44;;;;;;;8.10;4.17;;;;;;;19.65;65.45;99749.05;1765335;79;21012;-66
2021/06/15 06:39:10;;;;;;;11.35;4.70;;;;;;;19.65;64.64;99755.67;1773446;79;20960;-65
2021/06/15 06:41:38;;;;;;;30.25;8.38;;;;;;;19.45;65.08;99758.19;1768626;79;20979;-66
2021/06/15 06:44:05;;;;;;;23.77;5.70;;;;;;;19.65;65.44;99756.99;1773371;79;21529;-65
2021/06/15 06:46:32;;;;;;;12.03;5.70;;;;;;;20.01;65.53;99749.56;1769273;79;20924;-65
2021/06/15 06:48:59;;;;;;;17.67;5.15;;;;;;;20.51;65.21;99744.31;1763411;79;20880;-65
2021/06/15 06:51:26;;;;;;;12.10;5.60;;;;;;;20.58;63.36;99754.75;1770803;79;20966;-66
2021/06/15 06:53:52;;;;;;;16.77;5.20;;;;;;;20.27;63.66;99752.10;1771359;79;20973;-65
2021/06/15 06:56:19;;;;;;;13.15;5.70;;;;;;;20.00;63.86;99746.57;1770412;79;21114;-65
2021/06/15 06:58:47;;;;;;;9.90;5.15;;;;;;;19.82;63.75;99752.45;1770369;79;21016;-65
2021/06/15 07:01:14;;;;;;;11.10;5.25;;;;;;;19.55;63.67;99744.16;1768877;79;20995;-65
2021/06/15 07:03:40;;;;;;;;;;;;;;;19.60;63.86;99755.21;1771325;79;20971;-66
2021/06/15 07:06:07;;;;;;;12.60;5.45;;;;;;;19.77;64.22;99752.00;1776514;79;20112;-65
2021/06/15 07:08:33;;;;;;;13.13;5.00;;;;;;;20.00;63.85;99751.88;1770598;79;21688;-65
2021/06/15 07:11:00;;;;;;;11.55;5.60;;;;;;;20.58;63.79;99753.91;1768813;80;20925;-65
2021/06/15 07:13:27;;;;;;;12.03;5.20;;;;;;;21.13;63.90;99752.45;1772038;79;20897;-65
2021/06/15 07:15:54;;;;;;;11.97;4.60;;;;;;;21.89;61.75;99745.88;1761210;79;21551;-65
2021/06/15 07:18:20;;;;;;;13.68;5.25;;;;;;;22.10;60.97;99744.36;1773028;80;20924;-65
2021/06/15 07:20:47;;;;;;;17.07;4.83;;;;;;;22.42;62.52;99752.92;1766437;79;20986;-64
2021/06/15 07:23:14;;;;;;;;;;;;;;;22.54;61.85;99744.57;1773457;79;20909;-64
2021/06/15 07:25:41;;;;;;;10.23;3.87;;;;;;;22.28;58.85;99743.61;1765142;79;20078;-64
2021/06/15 07:28:07;;;;;;;;;;;;;;;21.78;60.25;99742.06;1770299;79;21111;-64
2021/06/15 07:30:34;;;;;;;18.37;5.25;;;;;;;21.89;61.25;99750.36;1772732;79;21226;-65
2021/06/15 07:33:01;;;;;;;;;;;;;;;21.70;60.19;99747.75;1769000;79;21086;-64
2021/06/15 07:35:28;;;;;;;;;;;;;;;21.29;60.36;99746.59;1772385;79;20158;-64
2021/06/15 07:37:57;;;;;;;16.93;5.37;;;;;;;21.07;60.74;99751.70;1777222;79;20187;-64
2021/06/15 07:40:24;;;;;;;15.43;5.80;;;;;;;20.83;60.96;99748.09;1777290;79;20963;-64
2021/06/15 07:42:53;;;;;;;8.95;4.08;;;;;;;21.05;61.89;99744.35;1780059;79;20928;-64
2021/06/15 07:45:21;;;;;;;8.85;4.62;;;;;;;21.11;61.13;99748.27;1777790;79;21039;-64
2021/06/15 07:47:49;;;;;;;10.82;4.75;;;;;;;20.74;60.56;99752.41;1757111;79;20920;-64
2021/06/15 07:50:16;;;;;;;10.53;4.97;;;;;;;20.60;61.42;99748.83;1784145;79;28118;-64
2021/06/15 07:52:44;;;;;;;10.75;4.25;;;;;;;20.32;60.81;99765.80;1788013;79;21474;-65
2021/06/15 07:55:13;;;;;;;11.83;4.50;;;;;;;19.93;61.27;99763.95;1782646;79;21085;-64
2021/06/15 07:57:41;;;;;;;9.78;4.42;;;;;;;19.78;61.85;99766.95;1776097;79;21119;-65
2021/06/15 08:00:10;;;;;;;14.30;4.22;;;;;;;19.70;61.97;99767.25;1783150;79;20912;-64
2021/06/15 08:02:36;;;;;;;10.10;4.25;;;;;;;19.61;62.10;99780.26;1776634;79;20951;-64
2021/06/15 08:05:04;;;;;;;10.03;4.12;;;;;;;19.39;62.40;99771.11;1780638;79;21016;-65
2021/06/15 08:07:33;;;;;;;10.68;4.22;;;;;;;19.12;63.36;99784.80;1779121;79;20915;-63
2021/06/15 08:09:59;;;;;;;7.97;3.95;;;;;;;18.90;62.95;99777.77;1777322;79;22173;-64
2021/06/15 08:12:26;;;;;;;10.25;4.20;;;;;;;18.86;63.51;99771.06;1780694;79;21008;-63
2021/06/15 08:14:52;;;;;;;12.90;4.10;;;;;;;18.69;63.81;99778.51;1781812;79;20968;-64
2021/06/15 08:17:19;;;;;;;7.62;4.33;;;;;;;18.62;63.72;99781.76;1778480;79;20945;-63
2021/06/15 08:19:46;;;;;;;10.48;3.95;;;;;;;18.61;64.26;99794.14;1777719;78;20920;-63
2021/06/15 08:22:13;;;;;;;9.33;3.90;;;;;;;18.48;63.99;99806.16;1774307;79;21959;-63
2021/06/15 08:24:39;;;;;;;20.52;4.50;;;;;;;18.28;65.06;99800.28;1766441;80;21471;-63
2021/06/15 08:27:06;;;;;;;10.65;4.22;;;;;;;18.22;64.57;99811.34;1765290;80;20951;-63
2021/06/15 08:29:33;;;;;;;10.82;4.72;;;;;;;18.21;64.74;99812.31;1770287;80;21455;-63
2021/06/15 08:31:59;;;;;;;8.53;4.17;;;;;;;18.02;64.93;99810.23;1765034;79;20869;-63
2021/06/15 08:34:26;;;;;;;7.65;3.22;;;;;;;17.80;65.16;99824.23;1765325;80;21050;-63
2021/06/15 08:36:52;;;;;;;10.05;3.92;;;;;;;17.53;66.02;99822.70;1756236;79;20890;-62
2021/06/15 08:39:20;;;;;;;6.80;3.37;;;;;;;17.44;65.70;99820.72;1745684;80;21500;-64
2021/06/15 08:41:46;;;;;;;;;;;;;;;17.47;65.94;99825.77;1755969;80;20913;-63
2021/06/15 08:44:13;;;;;;;6.10;3.40;;;;;;;17.54;65.99;99821.73;1772872;80;20429;-63
2021/06/15 08:46:39;;;;;;;11.80;3.20;;;;;;;17.65;65.96;99819.61;1767597;80;21073;-63
2021/06/15 08:49:06;;;;;;;9.15;3.80;;;;;;;17.76;65.88;99817.48;1764214;80;20870;-64
2021/06/15 08:51:35;;;;;;;19.12;4.42;;;;;;;17.86;65.80;99823.77;1769407;80;20936;-64
2021/06/15 08:54:04;;;;;;;14.53;4.28;;;;;;;17.90;65.86;99834.48;1774336;79;21366;-64
2021/06/15 08:56:33;;;;;;;10.35;3.85;;;;;;;17.83;65.75;99830.61;1775686;79;20909;-64
2021/06/15 08:59:22;;;;;;;8.30;3.50;;;;;;;18.02;66.13;99824.28;1780418;78;21007;-63
2021/06/15 09:01:52;;;;;;;24.90;4.85;;;;;;;18.04;65.75;99832.11;1765548;79;21486;-64
2021/06/15 09:04:19;;;;;;;12.93;4.62;;;;;;;17.93;66.06;99832.92;1773004;79;20853;-65
2021/06/15 09:06:49;;;;;;;21.52;6.42;;;;;;;17.92;66.07;99839.14;1772971;79;20886;-64
2021/06/15 09:09:16;;;;;;;15.05;5.12;;;;;;;17.99;66.33;99836.41;1764036;79;20937;-64
2021/06/15 09:11:55;;;;;;;10.88;4.90;;;;;;;18.17;66.25;99834.63;1769686;79;21105;-64
2021/06/15 09:14:54;;;;;;;10.40;4.87;;;;;;;18.29;66.31;99841.15;1761610;79;20976;-64
2021/06/15 09:17:34;;;;;;;5.50;3.90;;;;;;;18.34;65.90;99828.88;1776691;79;21100;-64
2021/06/15 09:20:24;;;;;;;14.10;4.60;;;;;;;18.31;66.01;99841.02;1771460;79;20915;-65
2021/06/15 09:23:09;;;;;;;10.40;4.60;;;;;;;18.31;66.01;99842.33;1770862;79;21489;-65
2021/06/15 09:25:36;;;;;;;30.57;4.78;;;;;;;18.39;65.82;99839.94;1773065;79;21478;-65
2021/06/15 09:28:20;;;;;;;8.70;4.20;;;;;;;18.27;65.88;99835.62;1772013;79;20971;-65
2021/06/15 09:31:01;;;;;;;9.93;3.70;;;;;;;18.32;65.68;99841.39;1738538;80;21454;-65
2021/06/15 09:33:46;;;;;;;7.53;3.47;;;;;;;18.23;65.83;99839.44;1783155;80;20901;-65
2021/06/15 09:36:33;;;;;;;17.52;4.47;;;;;;;18.25;65.57;99842.81;1760843;79;20952;-65
2021/06/15 09:39:02;;;;;;;14.40;3.98;;;;;;;18.29;66.04;99846.92;1752182;80;21100;-66
2021/06/15 09:41:44;;;;;;;8.03;3.62;;;;;;;18.53;65.60;99847.63;1765569;80;20913;-65
2021/06/15 09:44:21;;;;;;;4.97;3.08;;;;;;;18.79;65.40;99860.62;1786648;78;21443;-65
2021/06/15 09:46:55;;;;;;;11.40;3.80;;;;;;;18.63;65.01;99856.19;1781654;78;20946;-65
2021/06/15 09:49:40;;;;;;;15.25;4.60;;;;;;;18.58;65.70;99855.21;1783446;80;21436;-65
2021/06/15 09:52:29;;;;;;;27.90;5.15;;;;;;;18.54;65.00;99850.66;1786466;79;21609;-65
2021/06/15 09:55:00;;;;;;;17.07;4.30;;;;;;;18.53;65.68;99853.41;1777776;78;20962;-65
2021/06/15 09:57:39;;;;;;;12.63;3.70;;;;;;;18.52;65.41;99859.17;1782519;78;20920;-64
2021/06/15 10:00:22;;;;;;;8.20;2.85;;;;;;;18.30;65.16;99864.45;1785434;78;21011;-64
2021/06/15 10:02:58;;;;;;;22.65;3.45;;;;;;;18.11;65.30;99871.13;1781182;78;22201;-64
2021/06/15 10:05:33;;;;;;;6.17;2.20;;;;;;;17.65;64.71;99871.94;1767905;80;21837;-65
2021/06/15 10:08:11;;;;;;;6.28;2.05;;;;;;;17.22;65.10;99880.38;1755559;80;20916;-64
2021/06/15 10:10:44;;;;;;;7.12;2.15;;;;;;;17.14;65.86;99882.72;1783976;78;20914;-64
2021/06/15 10:13:12;;;;;;;4.58;2.08;;;;;;;17.14;65.60;99874.80;1758311;79;20902;-64
2021/06/15 10:15:42;;;;;;;8.00;2.87;;;;;;;17.11;65.41;99880.30;1765441;80;21455;-65
2021/06/15 10:18:09;;;;;;;13.43;3.45;;;;;;;17.22;65.47;99879.05;1757777;80;21539;-64
2021/06/15 10:20:37;;;;;;;5.78;2.40;;;;;;;17.22;65.58;99893.56;1760627;80;28129;-65
2021/06/15 10:23:05;;;;;;;12.07;3.27;;;;;;;17.27;65.32;99889.73;1779735;78;20959;-64
2021/06/15 10:25:33;;;;;;;4.37;2.75;;;;;;;17.30;65.85;99897.43;1779551;78;20971;-64
2021/06/15 10:28:11;;;;;;;13.58;4.15;;;;;;;17.47;65.52;99894.40;1779019;78;20975;-63
2021/06/15 10:30:40;;;;;;;18.30;3.80;;;;;;;17.37;65.56;99896.05;1777598;78;21215;-64
2021/06/15 10:33:26;;;;;;;16.57;4.25;;;;;;;17.41;65.90;99881.66;1785280;78;21723;-65
2021/06/15 10:35:54;;;;;;;40.80;7.20;;;;;;;18.13;65.91;99888.20;1766843;79;20961;-65
2021/06/15 10:38:31;;;;;;;192.20;20.95;;;;;;;18.76;66.28;99882.03;1780969;78;22765;-64
2021/06/15 10:41:02;;;;;;;54.42;7.92;;;;;;;19.54;66.34;99882.85;1780209;78;21070;-65
2021/06/15 10:43:40;;;;;;;9.35;2.85;;;;;;;20.24;65.09;99887.59;1780145;80;21903;-65
2021/06/15 10:46:18;;;;;;;7.58;2.70;;;;;;;20.12;61.69;99884.66;1766536;79;20917;-64
2021/06/15 10:48:46;;;;;;;6.87;3.10;;;;;;;19.33;61.32;99886.30;1766697;80;20967;-64
2021/06/15 10:51:23;;;;;;;9.68;3.02;;;;;;;18.67;62.30;99885.38;1763653;79;20983;-64
2021/06/15 10:53:50;;;;;;;11.70;4.30;;;;;;;18.36;63.51;99873.22;1769700;79;20932;-65
2021/06/15 10:56:20;;;;;;;21.77;4.42;;;;;;;18.72;64.43;99880.58;1762578;79;21065;-65
2021/06/15 10:58:57;;;;;;;62.03;10.82;;;;;;;18.85;63.95;99881.78;1761269;79;20945;-64
2021/06/15 11:01:34;;;;;;;229.60;22.32;;;;;;;19.31;64.29;99877.63;1754776;79;20877;-64
2021/06/15 11:04:13;;;;;;;119.60;23.10;;;;;;;20.04;64.67;99881.81;1761498;79;28547;-64
2021/06/15 11:06:51;;;;;;;25.50;6.53;;;;;;;20.62;64.38;99876.88;1760930;80;21052;-65
2021/06/15 11:09:24;;;;;;;62.62;11.65;;;;;;;21.03;62.53;99880.34;1764026;79;23064;-64
2021/06/15 11:12:08;;;;;;;205.67;21.57;;;;;;;20.96;62.90;99875.25;1768637;79;20943;-64
2021/06/15 11:14:37;;;;;;;75.22;11.95;;;;;;;21.26;63.67;99877.46;1760490;79;21089;-64
2021/06/15 11:17:07;;;;;;;262.38;35.73;;;;;;;21.77;62.69;99869.79;1762004;79;20961;-65
2021/06/15 11:19:40;;;;;;;122.45;19.30;;;;;;;22.18;62.22;99873.11;1758676;79;20897;-65
2021/06/15 11:22:20;;;;;;;24.63;6.22;;;;;;;21.95;61.47;99868.08;1756272;79;21039;-65
2021/06/15 11:25:00;;;;;;;147.78;25.97;;;;;;;21.81;57.65;99860.54;1761899;79;20962;-65
2021/06/15 11:27:29;;;;;;;272.12;22.45;;;;;;;21.76;61.43;99857.46;1756995;79;21005;-64
2021/06/15 11:30:14;;;;;;;197.87;26.05;;;;;;;21.99;61.18;99858.85;1762497;79;21467;-64
2021/06/15 11:32:57;;;;;;;168.47;27.67;;;;;;;22.16;61.03;99856.45;1762158;79;20946;-65
2021/06/15 11:35:27;;;;;;;215.87;30.05;;;;;;;22.37;60.45;99859.76;1752901;79;20991;-65
2021/06/15 11:37:55;;;;;;;39.15;9.20;;;;;;;22.49;60.62;99855.95;1762476;79;21841;-65
2021/06/15 11:40:36;;;;;;;81.17;8.30;;;;;;;22.57;58.43;99857.86;1728513;81;21484;-65
2021/06/15 11:43:16;;;;;;;208.23;23.02;;;;;;;22.42;59.60;99862.83;1763679;80;20960;-64
2021/06/15 11:45:48;;;;;;;139.52;17.95;;;;;;;22.62;59.70;99854.27;1766596;80;20918;-65
2021/06/15 11:48:33;;;;;;;116.40;17.90;;;;;;;22.87;59.32;99847.93;1721344;81;22248;-65
2021/06/15 11:51:09;;;;;;;201.62;32.58;;;;;;;22.99;57.88;99865.40;1771053;80;21003;-64
2021/06/15 11:53:40;;;;;;;30.60;4.40;;;;;;;22.67;57.79;99861.83;1768285;80;20962;-65